PWSweather.com
Personal Weather Stations
Station Observations
MAKAWAOWX1
Up Country Maui, Makawao, HI 96768

Up Country MauiMakawao, HI 96768

Lat: 20.856944, Lon: -156.3149667

Elevation: 1500

Station Type: Davis Vantage Pro

www.dwayneyamato@hawaiiantel.net

High Low Average
Temperature 72.3°F22.4°F 67.9°F19.9°F 69.3°F20.7°F
Dew Point 70.2°F21.2°F 64.3°F17.9°F 67.2°F19.6°F
Winds 10.4 mph E16.7 mph E Calm Calm 6.1 mph 9.8 mph
Wind Gusts 18.4 mph29.6 mph -- 12.8 mph20.6 mph
Humidity 95% 87% 93%
Pressure 29.93 in1013.50 in 29.86 in1011.20 in -
Precipitation 1.01 in25.70 in - -
Hour Temp Dew Point Humidity Winds Wind Gusts Pressure Precip Precip Rate Daily Precip Total
12:00 AM 68.5°F20.3°C 65.8°F18.8°C 91% 9.2 mph ENE14.8 kmh ENE 12.7 mph20.4 kmh 29.91 in1012.9 mb - 0.00 in0.0 mm 0.00 in0.0 mm
01:00 AM 68.4°F20.2°C 66.0°F18.9°C 92% 4.6 mph ENE7.4 kmh ENE 18.4 mph29.6 kmh 29.89 in1012.2 mb - 0.00 in0.0 mm 0.00 in0.0 mm
02:00 AM 68.6°F20.3°C 65.5°F18.6°C 90% 5.8 mph ENE9.3 kmh ENE 10.4 mph16.7 kmh 29.88 in1011.9 mb - 0.01 in0.3 mm 0.01 in0.3 mm
03:00 AM 68.5°F20.3°C 65.4°F18.6°C 90% 10.4 mph E16.7 kmh E 15.0 mph24.1 kmh 29.87 in1011.5 mb - 0.00 in0.0 mm 0.01 in0.3 mm
04:00 AM 67.9°F19.9°C 65.5°F18.6°C 92% 5.8 mph ENE9.3 kmh ENE 18.4 mph29.6 kmh 29.87 in1011.5 mb - 0.01 in0.3 mm 0.02 in0.5 mm
05:00 AM 68.3°F20.2°C 64.3°F17.9°C 87% 2.3 mph ENE3.7 kmh ENE 8.1 mph13.0 kmh 29.88 in1011.9 mb - 0.00 in0.0 mm 0.02 in0.5 mm
06:00 AM 67.9°F19.9°C 65.5°F18.6°C 92% 4.6 mph E7.4 kmh E 6.9 mph11.1 kmh 29.89 in1012.2 mb - 0.01 in0.3 mm 0.03 in0.8 mm
07:00 AM 68.5°F20.3°C 66.7°F19.3°C 94% 4.6 mph ENE7.4 kmh ENE 13.8 mph22.2 kmh 29.90 in1012.5 mb - 0.10 in2.5 mm 0.13 in3.3 mm
08:00 AM 69.3°F20.7°C 67.8°F19.9°C 95% 9.2 mph NE14.8 kmh NE 17.3 mph27.8 kmh 29.91 in1012.9 mb - 0.15 in3.8 mm 0.28 in7.1 mm
09:00 AM 69.3°F20.7°C 67.5°F19.7°C 94% 8.1 mph E13.0 kmh E 16.1 mph25.9 kmh 29.92 in1013.2 mb - 0.09 in2.3 mm 0.36 in9.1 mm
10:00 AM 70.1°F21.2°C 68.0°F20.0°C 93% 6.9 mph ENE11.1 kmh ENE 15.0 mph24.1 kmh 29.93 in1013.5 mb - 0.05 in1.3 mm 0.41 in10.4 mm
11:00 AM 70.8°F21.6°C 68.7°F20.4°C 93% 5.8 mph ENE9.3 kmh ENE 10.4 mph16.7 kmh 29.93 in1013.5 mb - 0.02 in0.5 mm 0.43 in10.9 mm
12:00 PM 70.9°F21.6°C 68.8°F20.4°C 93% 8.1 mph ENE13.0 kmh ENE 18.4 mph29.6 kmh 29.92 in1013.2 mb - 0.02 in0.5 mm 0.45 in11.4 mm
01:00 PM 72.3°F22.4°C 70.2°F21.2°C 93% Calm Calm -- 29.91 in1012.9 mb - 0.01 in0.3 mm 0.46 in11.7 mm
02:00 PM 70.7°F21.5°C 68.9°F20.5°C 94% 2.3 mph NE3.7 kmh NE 11.5 mph18.5 kmh 29.89 in1012.2 mb - 0.11 in2.8 mm 0.57 in14.5 mm
03:00 PM 70.7°F21.5°C 68.6°F20.3°C 93% 9.2 mph ENE14.8 kmh ENE 13.8 mph22.2 kmh 29.89 in1012.2 mb - 0.06 in1.5 mm 0.63 in16.0 mm
04:00 PM 70.8°F21.6°C 69.0°F20.6°C 94% 10.4 mph NE16.7 kmh NE 15.0 mph24.1 kmh 29.87 in1011.5 mb - 0.04 in1.0 mm 0.67 in17.0 mm
05:00 PM 69.9°F21.1°C 68.1°F20.1°C 94% 8.1 mph ENE13.0 kmh ENE 16.1 mph25.9 kmh 29.86 in1011.2 mb - 0.05 in1.3 mm 0.71 in18.0 mm
06:00 PM 69.2°F20.7°C 67.4°F19.7°C 94% 5.8 mph ENE9.3 kmh ENE 12.7 mph20.4 kmh 29.87 in1011.5 mb - 0.03 in0.8 mm 0.74 in18.8 mm
07:00 PM 68.6°F20.3°C 67.1°F19.5°C 95% 5.8 mph NE9.3 kmh NE 13.8 mph22.2 kmh 29.89 in1012.2 mb - 0.03 in0.8 mm 0.77 in19.6 mm
08:00 PM 68.7°F20.4°C 67.2°F19.6°C 95% 2.3 mph NE3.7 kmh NE 4.6 mph7.4 kmh 29.89 in1012.2 mb - 0.06 in1.5 mm 0.83 in21.1 mm
09:00 PM 68.5°F20.3°C 67.0°F19.4°C 95% 5.8 mph ENE9.3 kmh ENE 16.1 mph25.9 kmh 29.90 in1012.5 mb - 0.02 in0.5 mm 0.85 in21.6 mm
10:00 PM 68.7°F20.4°C 67.2°F19.6°C 95% 5.8 mph ENE9.3 kmh ENE 10.4 mph16.7 kmh 29.90 in1012.5 mb - 0.08 in2.0 mm 0.93 in23.6 mm
11:00 PM 68.2°F20.1°C 66.7°F19.3°C 95% 5.8 mph ENE9.3 kmh ENE 11.5 mph18.5 kmh 29.89 in1012.2 mb - 0.06 in1.5 mm 0.99 in25.1 mm